Time;durP1;ratioP1;P1;durP2;ratioP2;P2;SDS_P1;SDS_P2;PMS_P1;PMS_P2;Temp;Humidity;BMP_temperature;BMP_pressure;BME280_temperature;BME280_humidity;BME280_pressure;Samples;Min_cycle;Max_cycle;Signal;HPM_P1;HPM_P2
2023/03/22 00:00:34;;;;;;;4.80;4.40;;;;;;;;;;5033908;28;20041;-40
2023/03/22 00:02:59;;;;;;;5.78;4.57;;;;;;;;;;5031958;28;20505;-38
2023/03/22 00:05:25;;;;;;;4.95;4.30;;;;;;;;;;5028103;28;20049;-42
2023/03/22 00:07:52;;;;;;;4.50;4.10;;;;;;;;;;5035902;28;20069;-38
2023/03/22 00:10:18;;;;;;;6.75;4.55;;;;;;;;;;5032719;28;20094;-39
2023/03/22 00:12:44;;;;;;;5.53;4.65;;;;;;;;;;5031409;28;20111;-38
2023/03/22 00:15:10;;;;;;;4.97;4.50;;;;;;;;;;5032562;28;20021;-39
2023/03/22 00:17:35;;;;;;;5.80;5.07;;;;;;;;;;5034173;28;20546;-39
2023/03/22 00:20:05;;;;;;;6.72;4.50;;;;;;;;;;5035914;28;20026;-40
2023/03/22 00:22:33;;;;;;;8.52;4.47;;;;;;;;;;5033060;28;20037;-38
2023/03/22 00:24:58;;;;;;;8.43;4.80;;;;;;;;;;5022761;28;20029;-38
2023/03/22 00:27:24;;;;;;;8.68;5.10;;;;;;;;;;5036316;28;20048;-38
2023/03/22 00:29:52;;;;;;;5.43;4.15;;;;;;;;;;5032748;28;20056;-39
2023/03/22 00:32:17;;;;;;;4.95;3.45;;;;;;;;;;5033081;28;20083;-38
2023/03/22 00:34:43;;;;;;;5.85;4.30;;;;;;;;;;5030977;28;20558;-39
2023/03/22 00:37:08;;;;;;;6.03;4.72;;;;;;;;;;5026107;28;20049;-39
2023/03/22 00:39:34;;;;;;;7.18;4.80;;;;;;;;;;5033752;28;20049;-39
2023/03/22 00:41:59;;;;;;;5.32;4.35;;;;;;;;;;5035378;28;20175;-38
2023/03/22 00:44:25;;;;;;;7.25;4.53;;;;;;;;;;5038091;28;20478;-38
2023/03/22 00:46:50;;;;;;;5.45;4.68;;;;;;;;;;5030982;28;20048;-40
2023/03/22 00:49:15;;;;;;;11.65;7.15;;;;;;;;;;5032879;28;20033;-38
2023/03/22 00:51:41;;;;;;;10.88;7.57;;;;;;;;;;5037233;28;20132;-39
2023/03/22 00:54:06;;;;;;;7.88;4.85;;;;;;;;;;5040891;28;20041;-38
2023/03/22 00:56:32;;;;;;;6.57;4.60;;;;;;;;;;5032681;28;20140;-39
2023/03/22 00:58:58;;;;;;;5.18;3.97;;;;;;;;;;5039951;28;20362;-39
2023/03/22 01:01:24;;;;;;;5.00;4.25;;;;;;;;;;5034060;28;20517;-39
2023/03/22 01:03:49;;;;;;;4.10;3.70;;;;;;;;;;5038046;28;20021;-38
2023/03/22 01:06:15;;;;;;;5.88;4.32;;;;;;;;;;5032256;28;20111;-39
2023/03/22 01:08:41;;;;;;;5.45;4.40;;;;;;;;;;5034135;28;20047;-39
2023/03/22 01:11:08;;;;;;;7.22;4.72;;;;;;;;;;5038045;28;20041;-38
2023/03/22 01:13:38;;;;;;;9.70;4.38;;;;;;;;;;5040983;28;20122;-39
2023/03/22 01:16:05;;;;;;;6.30;4.40;;;;;;;;;;5031721;28;20037;-38
2023/03/22 01:18:30;;;;;;;7.85;4.63;;;;;;;;;;5032803;28;20049;-38
2023/03/22 01:20:55;;;;;;;6.45;4.35;;;;;;;;;;5035689;28;20041;-38
2023/03/22 01:23:21;;;;;;;5.40;4.90;;;;;;;;;;5038771;28;20069;-44
2023/03/22 01:25:46;;;;;;;7.43;5.50;;;;;;;;;;5030442;28;20045;-38
2023/03/22 01:28:12;;;;;;;6.97;4.78;;;;;;;;;;5039684;28;20033;-42
2023/03/22 01:30:39;;;;;;;6.80;4.75;;;;;;;;;;5034625;28;20037;-39
2023/03/22 01:33:06;;;;;;;5.10;4.38;;;;;;;;;;5040369;28;20028;-38
2023/03/22 01:35:32;;;;;;;5.95;4.32;;;;;;;;;;5031786;28;20045;-39
2023/03/22 01:37:57;;;;;;;5.20;4.70;;;;;;;;;;5054058;28;20074;-39
2023/03/22 01:40:23;;;;;;;10.00;5.85;;;;;;;;;;5029629;28;20076;-38
2023/03/22 01:42:48;;;;;;;6.80;5.88;;;;;;;;;;5040018;28;20034;-38
2023/03/22 01:45:14;;;;;;;6.60;4.90;;;;;;;;;;5037478;28;20032;-38
2023/03/22 01:48:01;;;;;;;9.93;5.80;;;;;;;;;;5038553;28;20036;-38
2023/03/22 01:50:28;;;;;;;5.38;4.78;;;;;;;;;;5038431;28;20047;-38
2023/03/22 01:52:56;;;;;;;7.45;4.72;;;;;;;;;;5034395;28;20112;-39
2023/03/22 01:55:22;;;;;;;10.10;5.63;;;;;;;;;;5037039;28;20061;-42
2023/03/22 01:57:50;;;;;;;5.22;4.72;;;;;;;;;;5028307;28;20094;-38
2023/03/22 02:00:17;;;;;;;8.95;5.60;;;;;;;;;;5035481;28;20060;-38
2023/03/22 02:02:46;;;;;;;7.15;5.55;;;;;;;;;;5031112;28;20585;-39
2023/03/22 02:05:12;;;;;;;6.43;5.72;;;;;;;;;;5034871;28;20029;-39
2023/03/22 02:07:40;;;;;;;7.30;5.30;;;;;;;;;;5031474;28;20638;-39
2023/03/22 02:10:11;;;;;;;8.30;5.82;;;;;;;;;;5034479;28;20035;-38
2023/03/22 02:12:42;;;;;;;8.57;6.70;;;;;;;;;;5037687;28;20359;-38
2023/03/22 02:15:17;;;;;;;9.20;5.80;;;;;;;;;;5037400;28;20032;-39
2023/03/22 02:17:50;;;;;;;7.18;6.47;;;;;;;;;;5027741;28;20045;-38
2023/03/22 02:20:57;;;;;;;7.13;6.30;;;;;;;;;;5034839;28;21808;-38
2023/03/22 02:24:04;;;;;;;10.85;6.55;;;;;;;;;;4973500;28;21033;-38
2023/03/22 02:26:45;;;;;;;7.22;6.30;;;;;;;;;;4972210;28;20104;-39
2023/03/22 02:29:29;;;;;;;9.52;6.78;;;;;;;;;;4977335;28;20030;-39
2023/03/22 02:32:14;;;;;;;7.72;6.93;;;;;;;;;;4974500;28;20039;-40
2023/03/22 02:34:49;;;;;;;9.55;7.38;;;;;;;;;;4973417;28;20046;-38
2023/03/22 02:37:32;;;;;;;7.72;6.53;;;;;;;;;;4973259;28;20124;-40
2023/03/22 02:40:00;;;;;;;6.38;5.55;;;;;;;;;;4971354;28;20113;-38
2023/03/22 02:42:54;;;;;;;7.85;6.25;;;;;;;;;;4976949;28;20030;-38
2023/03/22 02:45:28;;;;;;;6.55;5.95;;;;;;;;;;4969718;28;20058;-38
2023/03/22 02:48:08;;;;;;;9.30;6.03;;;;;;;;;;4970550;28;20121;-38
2023/03/22 02:50:42;;;;;;;9.35;5.95;;;;;;;;;;4973835;28;20044;-38
2023/03/22 02:53:13;;;;;;;9.75;6.00;;;;;;;;;;4972013;28;20515;-38
2023/03/22 02:55:50;;;;;;;9.13;6.33;;;;;;;;;;4974783;28;20431;-39
2023/03/22 02:58:24;;;;;;;12.68;7.18;;;;;;;;;;4974716;28;20050;-38
2023/03/22 03:00:54;;;;;;;8.45;6.47;;;;;;;;;;5021340;28;20041;-38
2023/03/22 03:03:24;;;;;;;8.20;6.28;;;;;;;;;;5036331;28;20033;-39
2023/03/22 03:05:55;;;;;;;8.77;6.07;;;;;;;;;;5030267;28;20049;-38
2023/03/22 03:08:22;;;;;;;7.80;5.95;;;;;;;;;;5031986;28;20037;-38
2023/03/22 03:10:49;;;;;;;8.75;6.50;;;;;;;;;;5030340;28;20398;-40
2023/03/22 03:13:16;;;;;;;7.20;5.78;;;;;;;;;;5029574;28;20032;-38
2023/03/22 03:15:45;;;;;;;7.00;6.00;;;;;;;;;;5038682;28;20505;-38
2023/03/22 03:18:36;;;;;;;6.90;5.95;;;;;;;;;;5033279;28;20045;-39
2023/03/22 03:21:02;;;;;;;6.83;5.50;;;;;;;;;;5029359;28;20186;-39
2023/03/22 03:23:36;;;;;;;8.00;6.60;;;;;;;;;;5031595;28;20547;-39
2023/03/22 03:26:13;;;;;;;6.65;6.00;;;;;;;;;;5033785;28;20251;-38
2023/03/22 03:28:54;;;;;;;6.38;5.72;;;;;;;;;;5034916;28;20037;-38
2023/03/22 03:31:22;;;;;;;9.95;5.70;;;;;;;;;;5031706;28;20040;-38
2023/03/22 03:33:58;;;;;;;9.05;6.45;;;;;;;;;;5035438;28;20029;-38
2023/03/22 03:36:25;;;;;;;7.97;6.25;;;;;;;;;;5030278;28;22293;-38
2023/03/22 03:38:53;;;;;;;10.57;6.30;;;;;;;;;;5033027;28;20020;-38
2023/03/22 03:41:26;;;;;;;6.57;5.75;;;;;;;;;;5036881;28;20045;-39
2023/03/22 03:43:54;;;;;;;9.40;6.07;;;;;;;;;;5031425;28;20029;-39
2023/03/22 03:46:20;;;;;;;12.18;6.78;;;;;;;;;;5030735;28;20398;-38
2023/03/22 03:48:48;;;;;;;11.18;6.32;;;;;;;;;;5033232;28;20033;-38
2023/03/22 03:51:14;;;;;;;12.77;6.30;;;;;;;;;;5031876;28;20034;-38
2023/03/22 03:53:39;;;;;;;7.93;6.38;;;;;;;;;;5034667;28;20091;-39
2023/03/22 03:56:05;;;;;;;7.82;6.03;;;;;;;;;;5033107;28;20562;-38
2023/03/22 03:58:31;;;;;;;9.00;6.95;;;;;;;;;;5031470;28;20033;-38
2023/03/22 04:00:56;;;;;;;7.68;6.00;;;;;;;;;;5028416;28;20033;-38
2023/03/22 04:03:22;;;;;;;6.88;6.18;;;;;;;;;;5034720;28;20060;-38
2023/03/22 04:05:47;;;;;;;6.40;5.72;;;;;;;;;;5033080;28;20065;-39
2023/03/22 04:08:12;;;;;;;10.02;6.07;;;;;;;;;;5030801;28;20657;-38
2023/03/22 04:10:38;;;;;;;7.38;5.85;;;;;;;;;;5032211;28;20133;-38
2023/03/22 04:13:03;;;;;;;9.48;5.93;;;;;;;;;;5035865;28;20025;-38
2023/03/22 04:15:29;;;;;;;8.32;5.60;;;;;;;;;;5031541;28;20040;-38
2023/03/22 04:17:55;;;;;;;6.15;5.45;;;;;;;;;;5033569;28;21004;-38
2023/03/22 04:20:21;;;;;;;6.75;5.60;;;;;;;;;;5036102;28;20087;-38
2023/03/22 04:22:47;;;;;;;6.90;5.70;;;;;;;;;;5038003;28;20064;-39
2023/03/22 04:25:16;;;;;;;7.43;5.80;;;;;;;;;;5037750;28;20048;-39
2023/03/22 04:27:42;;;;;;;5.28;4.75;;;;;;;;;;5032924;28;20570;-39
2023/03/22 04:30:11;;;;;;;6.88;5.40;;;;;;;;;;5034095;28;20108;-38
2023/03/22 04:32:38;;;;;;;13.30;5.45;;;;;;;;;;5036080;28;20055;-39
2023/03/22 04:35:04;;;;;;;7.53;5.30;;;;;;;;;;5035000;28;20028;-38
2023/03/22 04:37:32;;;;;;;7.68;5.03;;;;;;;;;;5035671;28;20029;-44
2023/03/22 04:39:58;;;;;;;5.93;5.32;;;;;;;;;;5032890;28;20070;-43
2023/03/22 04:42:24;;;;;;;8.95;6.32;;;;;;;;;;5037206;28;20032;-40
2023/03/22 04:44:50;;;;;;;5.53;4.90;;;;;;;;;;5040227;28;20029;-39
2023/03/22 04:47:16;;;;;;;7.05;5.45;;;;;;;;;;5039072;28;20056;-39
2023/03/22 04:49:42;;;;;;;5.95;5.13;;;;;;;;;;5040925;28;20086;-39
2023/03/22 04:52:07;;;;;;;8.35;5.72;;;;;;;;;;5034782;28;20034;-39
2023/03/22 04:54:33;;;;;;;6.60;5.22;;;;;;;;;;5034247;28;20152;-39
2023/03/22 04:56:59;;;;;;;6.80;5.10;;;;;;;;;;5039195;28;20943;-38
2023/03/22 04:59:25;;;;;;;7.47;5.07;;;;;;;;;;5033637;28;20029;-39
2023/03/22 05:01:50;;;;;;;6.57;5.05;;;;;;;;;;5042384;28;20037;-39
2023/03/22 05:04:17;;;;;;;9.23;5.22;;;;;;;;;;5036831;28;20470;-38
2023/03/22 05:06:43;;;;;;;8.05;4.97;;;;;;;;;;5034277;28;20123;-39
2023/03/22 05:09:09;;;;;;;7.40;5.10;;;;;;;;;;5035144;28;20393;-46
2023/03/22 05:11:35;;;;;;;6.72;4.88;;;;;;;;;;5042449;28;20386;-39
2023/03/22 05:14:01;;;;;;;8.13;5.10;;;;;;;;;;5033680;28;20033;-42
2023/03/22 05:16:26;;;;;;;6.07;5.30;;;;;;;;;;5035742;28;20038;-39
2023/03/22 05:18:55;;;;;;;6.13;4.90;;;;;;;;;;5029601;28;20029;-39
2023/03/22 05:21:27;;;;;;;5.72;4.55;;;;;;;;;;5034720;28;20041;-38
2023/03/22 05:23:56;;;;;;;7.35;4.85;;;;;;;;;;5035221;28;20040;-39
2023/03/22 05:26:25;;;;;;;10.40;5.45;;;;;;;;;;5033723;28;22270;-39
2023/03/22 05:28:51;;;;;;;5.05;4.55;;;;;;;;;;5031076;28;20041;-38
2023/03/22 05:31:20;;;;;;;9.63;5.07;;;;;;;;;;5038650;28;20047;-39
2023/03/22 05:33:47;;;;;;;7.72;5.00;;;;;;;;;;5030590;28;20060;-39
2023/03/22 05:36:12;;;;;;;6.53;5.20;;;;;;;;;;5026091;28;20409;-38
2023/03/22 05:38:38;;;;;;;8.07;5.10;;;;;;;;;;5027132;28;20024;-39
2023/03/22 05:41:04;;;;;;;11.10;5.15;;;;;;;;;;5026634;28;20445;-38
2023/03/22 05:43:29;;;;;;;5.50;4.97;;;;;;;;;;5038227;28;20030;-39
2023/03/22 05:45:55;;;;;;;17.30;5.57;;;;;;;;;;5034924;28;20437;-44
2023/03/22 05:48:20;;;;;;;6.60;5.82;;;;;;;;;;5030100;28;20055;-38
2023/03/22 05:50:46;;;;;;;10.35;5.35;;;;;;;;;;5034713;28;20044;-42
2023/03/22 05:53:11;;;;;;;7.30;5.30;;;;;;;;;;5034100;28;20028;-39
2023/03/22 05:55:37;;;;;;;5.80;5.10;;;;;;;;;;5036300;28;20453;-39
2023/03/22 05:58:03;;;;;;;8.13;5.43;;;;;;;;;;5034907;28;20033;-38
2023/03/22 06:00:33;;;;;;;7.68;5.50;;;;;;;;;;5037754;28;20060;-39
2023/03/22 06:03:02;;;;;;;9.65;5.78;;;;;;;;;;5033511;28;20032;-38
2023/03/22 06:05:30;;;;;;;6.55;5.10;;;;;;;;;;5033079;28;20075;-45
2023/03/22 06:07:56;;;;;;;11.13;5.40;;;;;;;;;;5033667;28;20061;-39
2023/03/22 06:10:23;;;;;;;9.40;5.45;;;;;;;;;;5032389;28;20076;-42
2023/03/22 06:12:49;;;;;;;5.82;4.47;;;;;;;;;;5029913;28;20034;-38
2023/03/22 06:15:14;;;;;;;9.43;4.85;;;;;;;;;;5031731;28;20088;-38
2023/03/22 06:17:41;;;;;;;8.07;4.68;;;;;;;;;;5028459;28;20398;-39
2023/03/22 06:20:10;;;;;;;7.82;4.47;;;;;;;;;;5029562;28;20108;-38
2023/03/22 06:22:37;;;;;;;8.65;4.43;;;;;;;;;;5037745;28;20021;-38
2023/03/22 06:25:03;;;;;;;5.95;4.63;;;;;;;;;;5024831;28;20479;-39
2023/03/22 06:27:29;;;;;;;6.72;4.70;;;;;;;;;;5027838;28;20064;-39
2023/03/22 06:29:54;;;;;;;6.65;4.50;;;;;;;;;;5032966;28;20044;-38
2023/03/22 06:32:22;;;;;;;7.40;4.60;;;;;;;;;;5026038;28;20401;-38
2023/03/22 06:34:57;;;;;;;5.82;4.43;;;;;;;;;;5038699;28;20078;-40
2023/03/22 06:37:23;;;;;;;5.90;4.90;;;;;;;;;;5035438;28;20041;-38
2023/03/22 06:39:50;;;;;;;9.63;4.88;;;;;;;;;;5026791;28;20029;-38
2023/03/22 06:42:15;;;;;;;9.10;5.07;;;;;;;;;;5022787;28;20033;-44
2023/03/22 06:44:42;;;;;;;7.00;5.30;;;;;;;;;;5027602;28;20374;-39
2023/03/22 06:47:08;;;;;;;8.77;5.30;;;;;;;;;;5033078;28;20033;-39
2023/03/22 06:49:34;;;;;;;5.40;4.55;;;;;;;;;;5029704;28;20529;-41
2023/03/22 06:51:59;;;;;;;10.05;4.75;;;;;;;;;;5019413;28;20553;-39
2023/03/22 06:54:25;;;;;;;6.88;4.38;;;;;;;;;;5033930;28;20493;-38
2023/03/22 06:56:50;;;;;;;9.07;4.70;;;;;;;;;;5020781;28;20371;-39
2023/03/22 06:59:15;;;;;;;5.30;4.40;;;;;;;;;;5025236;28;20040;-41
2023/03/22 07:01:41;;;;;;;5.25;4.22;;;;;;;;;;5029334;28;20036;-39
2023/03/22 07:04:06;;;;;;;4.30;3.90;;;;;;;;;;5029209;28;20060;-39
2023/03/22 07:06:32;;;;;;;10.35;4.22;;;;;;;;;;5028238;28;20029;-39
2023/03/22 07:08:58;;;;;;;6.55;4.03;;;;;;;;;;5031647;28;20514;-38
2023/03/22 07:11:25;;;;;;;7.05;4.50;;;;;;;;;;5031859;28;20096;-38
2023/03/22 07:13:52;;;;;;;7.18;4.25;;;;;;;;;;5036056;28;20423;-39
2023/03/22 07:16:17;;;;;;;8.25;4.55;;;;;;;;;;5032185;28;20069;-38
2023/03/22 07:18:42;;;;;;;7.05;4.85;;;;;;;;;;5030437;28;20470;-39
2023/03/22 07:21:08;;;;;;;5.32;4.40;;;;;;;;;;5033934;28;20041;-38
2023/03/22 07:23:33;;;;;;;8.43;5.07;;;;;;;;;;5035596;28;20034;-39
2023/03/22 07:25:59;;;;;;;7.00;4.20;;;;;;;;;;5032027;28;20045;-38
2023/03/22 07:28:25;;;;;;;6.47;4.57;;;;;;;;;;5032178;28;20041;-38
2023/03/22 07:31:02;;;;;;;8.18;5.03;;;;;;;;;;5034505;28;20037;-39
2023/03/22 07:33:28;;;;;;;6.28;4.93;;;;;;;;;;5027721;28;20386;-39
2023/03/22 07:35:54;;;;;;;5.75;4.88;;;;;;;;;;5034656;28;20708;-39
2023/03/22 07:38:20;;;;;;;7.15;6.00;;;;;;;;;;5028783;28;20052;-38
2023/03/22 07:40:45;;;;;;;8.15;5.72;;;;;;;;;;5033670;28;20506;-39
2023/03/22 07:43:12;;;;;;;6.93;5.25;;;;;;;;;;5034874;28;20030;-39
2023/03/22 07:45:38;;;;;;;5.18;4.32;;;;;;;;;;5032008;28;20383;-39
2023/03/22 07:48:03;;;;;;;7.97;4.18;;;;;;;;;;5032552;28;20063;-40
2023/03/22 07:50:29;;;;;;;6.55;4.30;;;;;;;;;;5036864;28;20402;-39
2023/03/22 07:52:54;;;;;;;5.90;3.90;;;;;;;;;;5034788;28;20033;-42
2023/03/22 07:55:19;;;;;;;5.85;3.72;;;;;;;;;;5031410;28;20041;-39
2023/03/22 07:57:45;;;;;;;5.40;3.80;;;;;;;;;;5031466;28;20108;-39
2023/03/22 08:00:11;;;;;;;9.15;4.50;;;;;;;;;;5036822;28;20474;-39
2023/03/22 08:02:37;;;;;;;6.88;4.28;;;;;;;;;;5035517;28;20033;-38
2023/03/22 08:05:04;;;;;;;6.35;4.00;;;;;;;;;;5033223;28;20032;-39
2023/03/22 08:07:30;;;;;;;6.35;3.83;;;;;;;;;;5026903;28;20044;-42
2023/03/22 08:09:56;;;;;;;6.60;3.50;;;;;;;;;;5032953;28;20036;-38
2023/03/22 08:12:21;;;;;;;5.25;3.53;;;;;;;;;;5028230;28;20029;-38
2023/03/22 08:14:49;;;;;;;11.50;4.43;;;;;;;;;;5034025;28;20088;-39
2023/03/22 08:17:16;;;;;;;5.50;3.67;;;;;;;;;;5038036;28;20045;-39
2023/03/22 08:19:41;;;;;;;7.43;3.35;;;;;;;;;;5033858;28;20037;-39
2023/03/22 08:22:07;;;;;;;5.63;4.00;;;;;;;;;;5032100;28;20086;-39
2023/03/22 08:24:32;;;;;;;10.15;3.83;;;;;;;;;;5031704;28;20064;-38
2023/03/22 08:26:58;;;;;;;6.47;4.10;;;;;;;;;;5030928;28;20048;-39
2023/03/22 08:29:24;;;;;;;8.45;3.85;;;;;;;;;;5032051;28;20064;-38
2023/03/22 08:31:50;;;;;;;10.45;3.90;;;;;;;;;;5034821;28;20530;-39
2023/03/22 08:34:16;;;;;;;8.43;5.00;;;;;;;;;;5032585;28;20052;-38
2023/03/22 08:36:41;;;;;;;9.77;5.30;;;;;;;;;;5034792;28;20041;-38
2023/03/22 08:39:08;;;;;;;14.88;6.20;;;;;;;;;;5024707;28;20398;-39
2023/03/22 08:41:34;;;;;;;11.25;5.60;;;;;;;;;;5034649;28;20040;-39
2023/03/22 08:43:59;;;;;;;9.13;5.47;;;;;;;;;;5031567;28;20371;-40
2023/03/22 08:46:25;;;;;;;8.55;5.57;;;;;;;;;;5029727;28;20041;-39
2023/03/22 08:48:51;;;;;;;10.43;6.50;;;;;;;;;;5035027;28;20033;-39
2023/03/22 08:51:18;;;;;;;10.40;7.65;;;;;;;;;;5033387;28;20044;-39
2023/03/22 08:53:45;;;;;;;11.20;8.50;;;;;;;;;;5037873;28;20017;-39
2023/03/22 08:56:10;;;;;;;14.95;8.23;;;;;;;;;;5032706;28;20037;-39
2023/03/22 08:58:36;;;;;;;13.38;8.35;;;;;;;;;;5031505;28;20036;-39
2023/03/22 09:01:01;;;;;;;19.65;8.70;;;;;;;;;;5036437;28;20591;-39
2023/03/22 09:03:27;;;;;;;13.70;9.52;;;;;;;;;;5036172;28;20051;-39
2023/03/22 09:05:52;;;;;;;16.17;8.75;;;;;;;;;;5029540;28;20049;-39
2023/03/22 09:08:18;;;;;;;14.52;8.48;;;;;;;;;;5036193;28;20048;-39
2023/03/22 09:10:46;;;;;;;20.33;9.98;;;;;;;;;;5036092;28;20034;-39
2023/03/22 09:13:13;;;;;;;12.95;8.02;;;;;;;;;;5038999;28;20025;-38
2023/03/22 09:15:39;;;;;;;12.65;7.88;;;;;;;;;;5032666;28;20494;-39
2023/03/22 09:18:04;;;;;;;18.23;7.22;;;;;;;;;;5029071;28;20073;-39
2023/03/22 09:20:29;;;;;;;8.80;5.88;;;;;;;;;;5032095;28;20044;-39
2023/03/22 09:22:56;;;;;;;8.18;5.93;;;;;;;;;;5031591;28;20030;-41
2023/03/22 09:25:21;;;;;;;6.45;3.70;;;;;;;;;;5032615;28;20050;-39
2023/03/22 09:27:46;;;;;;;4.22;3.83;;;;;;;;;;5034100;28;20116;-39
2023/03/22 09:30:12;;;;;;;8.80;4.88;;;;;;;;;;5040340;28;20025;-39
2023/03/22 09:32:38;;;;;;;6.30;4.55;;;;;;;;;;5032218;28;20040;-39
2023/03/22 09:35:03;;;;;;;5.28;4.15;;;;;;;;;;5032592;28;20036;-39
2023/03/22 09:37:29;;;;;;;9.98;4.38;;;;;;;;;;5036839;28;20061;-38
2023/03/22 09:39:56;;;;;;;5.32;3.38;;;;;;;;;;5031704;28;20043;-39
2023/03/22 09:42:31;;;;;;;4.90;3.50;;;;;;;;;;5034891;28;20049;-39
2023/03/22 09:45:00;;;;;;;5.10;4.28;;;;;;;;;;5034604;28;20037;-39
2023/03/22 09:47:40;;;;;;;7.68;3.80;;;;;;;;;;5034770;28;20051;-39
2023/03/22 09:50:24;;;;;;;4.70;4.30;;;;;;;;;;5030879;28;20029;-39
2023/03/22 09:52:49;;;;;;;9.50;4.40;;;;;;;;;;5033263;28;20029;-39
2023/03/22 09:55:22;;;;;;;8.93;4.28;;;;;;;;;;5036283;28;20040;-39
2023/03/22 09:58:00;;;;;;;9.23;3.80;;;;;;;;;;5038881;28;20071;-39
2023/03/22 10:00:50;;;;;;;5.97;3.60;;;;;;;;;;5039758;28;20045;-39
2023/03/22 10:03:18;;;;;;;15.10;5.60;;;;;;;;;;5035193;28;20026;-44
2023/03/22 10:05:52;;;;;;;10.63;5.70;;;;;;;;;;5030442;28;20501;-39
2023/03/22 10:08:32;;;;;;;8.70;5.32;;;;;;;;;;5034597;28;20053;-39
2023/03/22 10:10:59;;;;;;;13.25;4.70;;;;;;;;;;5025105;28;20044;-38
2023/03/22 10:13:36;;;;;;;5.40;3.13;;;;;;;;;;5032576;28;20029;-39
2023/03/22 10:16:05;;;;;;;4.35;3.13;;;;;;;;;;5030269;28;20139;-39
2023/03/22 10:18:37;;;;;;;3.63;2.47;;;;;;;;;;5032187;28;20502;-40
2023/03/22 10:21:05;;;;;;;;;;;;;;;;;;5035979;28;20485;-38
2023/03/22 10:23:38;;;;;;;5.22;2.10;;;;;;;;;;5036548;28;20353;-38
2023/03/22 10:26:06;;;;;;;3.78;3.00;;;;;;;;;;5035444;28;20071;-39
2023/03/22 10:28:40;;;;;;;4.28;2.90;;;;;;;;;;5036079;28;20060;-39
2023/03/22 10:31:13;;;;;;;10.50;4.90;;;;;;;;;;5037880;28;20072;-39
2023/03/22 10:33:49;;;;;;;9.60;4.38;;;;;;;;;;5029583;28;20028;-45
2023/03/22 10:36:15;;;;;;;10.35;4.00;;;;;;;;;;5037670;28;20091;-39
2023/03/22 10:39:15;;;;;;;12.57;4.35;;;;;;;;;;5029028;28;20025;-39
2023/03/22 10:41:41;;;;;;;10.00;5.60;;;;;;;;;;5027551;28;20490;-39
2023/03/22 10:44:09;;;;;;;10.27;6.28;;;;;;;;;;5037241;28;21147;-38
2023/03/22 10:46:38;;;;;;;16.77;6.30;;;;;;;;;;5038150;28;20077;-39
2023/03/22 10:49:04;;;;;;;14.65;5.95;;;;;;;;;;5032394;28;20087;-42
2023/03/22 10:51:36;;;;;;;8.05;4.32;;;;;;;;;;5033249;28;20048;-39
2023/03/22 10:54:02;;;;;;;10.35;4.82;;;;;;;;;;5036452;28;20036;-39
2023/03/22 10:56:27;;;;;;;7.05;4.35;;;;;;;;;;5031085;28;20048;-39
2023/03/22 10:58:56;;;;;;;9.68;4.95;;;;;;;;;;5039065;28;20029;-40
2023/03/22 11:01:30;;;;;;;13.77;5.10;;;;;;;;;;5032920;28;20038;-38
2023/03/22 11:04:15;;;;;;;6.65;4.43;;;;;;;;;;5029145;28;20056;-40
2023/03/22 11:06:49;;;;;;;11.60;4.82;;;;;;;;;;5029580;28;20033;-38
2023/03/22 11:09:17;;;;;;;8.02;4.80;;;;;;;;;;5033047;28;20115;-38
2023/03/22 11:11:55;;;;;;;8.15;4.57;;;;;;;;;;5032822;28;20064;-38
2023/03/22 11:14:35;;;;;;;10.88;6.03;;;;;;;;;;5030624;28;20033;-42
2023/03/22 11:17:18;;;;;;;8.80;4.72;;;;;;;;;;5033811;28;20041;-41
2023/03/22 11:19:57;;;;;;;6.80;4.00;;;;;;;;;;5035205;28;20178;-38
2023/03/22 11:22:35;;;;;;;6.35;3.80;;;;;;;;;;5035153;28;20048;-44
2023/03/22 11:25:02;;;;;;;5.53;3.33;;;;;;;;;;5037811;28;20081;-40
2023/03/22 11:27:31;;;;;;;6.00;3.25;;;;;;;;;;5030702;28;20026;-38
2023/03/22 11:30:06;;;;;;;3.55;2.60;;;;;;;;;;5033677;28;20088;-43
2023/03/22 11:32:36;;;;;;;5.30;3.05;;;;;;;;;;5030758;28;20017;-40
2023/03/22 11:35:11;;;;;;;3.97;3.17;;;;;;;;;;5037419;28;20034;-41
2023/03/22 11:37:45;;;;;;;6.03;3.05;;;;;;;;;;5037040;28;20166;-38
2023/03/22 11:40:25;;;;;;;7.15;2.83;;;;;;;;;;5031854;28;20033;-43
2023/03/22 11:42:55;;;;;;;3.70;2.92;;;;;;;;;;5034281;28;20034;-38
2023/03/22 11:45:27;;;;;;;3.83;2.90;;;;;;;;;;5032493;28;20817;-38
2023/03/22 11:47:53;;;;;;;7.57;3.22;;;;;;;;;;5037299;28;20025;-39
2023/03/22 11:50:28;;;;;;;6.95;4.40;;;;;;;;;;5032734;28;20151;-38
2023/03/22 11:52:55;;;;;;;12.52;3.47;;;;;;;;;;5036272;28;20032;-39
2023/03/22 11:55:21;;;;;;;3.75;3.22;;;;;;;;;;5034897;28;20548;-38
2023/03/22 11:57:49;;;;;;;6.03;3.22;;;;;;;;;;5029942;28;20064;-39
2023/03/22 12:00:21;;;;;;;5.82;2.53;;;;;;;;;;5031020;28;20433;-38
2023/03/22 12:03:12;;;;;;;5.93;2.70;;;;;;;;;;5031747;28;20021;-37
2023/03/22 12:05:41;;;;;;;4.13;2.45;;;;;;;;;;5031025;28;20072;-41
2023/03/22 12:08:20;;;;;;;3.65;2.60;;;;;;;;;;5030891;28;20061;-38
2023/03/22 12:10:56;;;;;;;6.88;2.90;;;;;;;;;;5035309;28;20050;-40
2023/03/22 12:13:25;;;;;;;5.78;2.53;;;;;;;;;;5031020;28;20040;-44
2023/03/22 12:15:57;;;;;;;4.15;2.40;;;;;;;;;;5030950;28;20549;-38
2023/03/22 12:18:32;;;;;;;;;;;;;;;;;;5032189;28;20430;-38
2023/03/22 12:20:59;;;;;;;5.88;2.90;;;;;;;;;;5035434;28;19972;-39
2023/03/22 12:23:28;;;;;;;3.97;2.67;;;;;;;;;;5036862;28;20044;-38
2023/03/22 12:26:02;;;;;;;6.22;2.83;;;;;;;;;;5035380;28;20090;-38
2023/03/22 12:28:33;;;;;;;5.50;3.00;;;;;;;;;;5032886;28;20061;-38
2023/03/22 12:30:59;;;;;;;4.72;2.70;;;;;;;;;;5033236;28;20046;-38
2023/03/22 12:33:25;;;;;;;5.75;3.25;;;;;;;;;;5036421;28;20045;-38
2023/03/22 12:35:55;;;;;;;3.25;2.72;;;;;;;;;;5029994;28;20460;-38
2023/03/22 12:38:47;;;;;;;9.82;2.63;;;;;;;;;;5037435;28;20041;-39
2023/03/22 12:41:16;;;;;;;4.53;2.70;;;;;;;;;;5039645;28;20607;-39
2023/03/22 12:44:02;;;;;;;4.68;2.80;;;;;;;;;;5040067;28;20080;-39
2023/03/22 12:46:33;;;;;;;8.90;2.15;;;;;;;;;;5035934;28;20042;-38
2023/03/22 12:49:22;;;;;;;5.82;2.45;;;;;;;;;;5037834;28;20032;-39
2023/03/22 12:51:49;;;;;;;10.98;2.83;;;;;;;;;;5036079;28;20125;-38
2023/03/22 12:54:17;;;;;;;3.78;2.20;;;;;;;;;;5040451;28;20121;-41
2023/03/22 12:56:45;;;;;;;2.40;1.95;;;;;;;;;;5035602;28;20038;-38
2023/03/22 12:59:18;;;;;;;6.45;2.80;;;;;;;;;;5036824;28;20029;-37
2023/03/22 13:01:59;;;;;;;6.43;2.67;;;;;;;;;;5033493;28;20052;-38
2023/03/22 13:04:48;;;;;;;3.97;1.95;;;;;;;;;;5036594;28;20036;-38
2023/03/22 13:07:35;;;;;;;3.05;2.10;;;;;;;;;;5039554;28;20064;-38
2023/03/22 13:10:30;;;;;;;7.75;2.75;;;;;;;;;;5034277;28;20033;-38
2023/03/22 13:13:11;;;;;;;8.23;2.15;;;;;;;;;;5033572;28;20032;-38
2023/03/22 13:16:10;;;;;;;6.43;2.30;;;;;;;;;;5037464;28;20068;-39
2023/03/22 13:18:36;;;;;;;9.98;2.95;;;;;;;;;;5034877;28;20037;-38
2023/03/22 13:21:18;;;;;;;2.25;1.88;;;;;;;;;;5033797;28;20082;-38
2023/03/22 13:24:04;;;;;;;4.18;2.20;;;;;;;;;;5036416;28;20024;-38
2023/03/22 13:26:44;;;;;;;5.60;1.90;;;;;;;;;;5024647;28;20049;-42
2023/03/22 13:29:32;;;;;;;2.92;2.30;;;;;;;;;;5034666;28;20033;-38
2023/03/22 13:32:04;;;;;;;4.95;2.30;;;;;;;;;;5033446;28;20551;-43
2023/03/22 13:34:32;;;;;;;4.68;2.00;;;;;;;;;;5038020;28;20029;-38
2023/03/22 13:37:00;;;;;;;6.20;2.72;;;;;;;;;;5029926;28;20414;-38
2023/03/22 13:39:33;;;;;;;8.13;2.17;;;;;;;;;;5037445;28;20039;-38
2023/03/22 13:42:17;;;;;;;4.03;1.77;;;;;;;;;;5038033;28;20044;-38
2023/03/22 13:44:44;;;;;;;2.92;2.08;;;;;;;;;;5035045;28;20112;-38
2023/03/22 13:47:43;;;;;;;3.42;1.80;;;;;;;;;;5035237;28;20094;-38
2023/03/22 13:50:20;;;;;;;10.65;1.70;;;;;;;;;;5027960;28;20095;-38
2023/03/22 13:52:58;;;;;;;5.20;1.88;;;;;;;;;;5037138;28;20108;-38
2023/03/22 13:55:45;;;;;;;13.35;2.33;;;;;;;;;;5036606;28;20037;-38
2023/03/22 13:58:35;;;;;;;4.80;1.70;;;;;;;;;;5032029;28;20033;-38
2023/03/22 14:01:03;;;;;;;5.00;1.80;;;;;;;;;;5029704;28;20042;-42
2023/03/22 14:03:33;;;;;;;8.73;1.77;;;;;;;;;;5035223;28;20025;-38
2023/03/22 14:06:10;;;;;;;2.65;1.52;;;;;;;;;;5030210;28;20072;-38
2023/03/22 14:08:36;;;;;;;7.15;2.10;;;;;;;;;;5035204;28;20040;-39
2023/03/22 14:11:28;;;;;;;6.13;1.77;;;;;;;;;;5036408;28;20461;-38
2023/03/22 14:14:03;;;;;;;2.72;1.50;;;;;;;;;;5015368;28;20022;-38
2023/03/22 14:16:40;;;;;;;4.93;2.00;;;;;;;;;;5014680;28;20037;-38
2023/03/22 14:19:11;;;;;;;5.78;1.50;;;;;;;;;;5007070;28;20084;-38
2023/03/22 14:21:38;;;;;;;2.55;1.20;;;;;;;;;;5011965;28;20045;-38
2023/03/22 14:24:06;;;;;;;1.60;1.50;;;;;;;;;;5015421;28;20040;-40
2023/03/22 14:26:38;;;;;;;9.20;1.77;;;;;;;;;;5011487;28;20045;-38
2023/03/22 14:29:08;;;;;;;;;;;;;;;;;;5008074;28;20029;-38
2023/03/22 14:31:34;;;;;;;2.28;1.73;;;;;;;;;;5013441;28;19924;-38
2023/03/22 14:34:03;;;;;;;6.60;1.85;;;;;;;;;;5014396;28;20642;-37
2023/03/22 14:36:34;;;;;;;5.63;1.83;;;;;;;;;;5016300;28;20045;-38
2023/03/22 14:39:07;;;;;;;5.03;2.00;;;;;;;;;;5016834;28;20045;-38
2023/03/22 14:41:32;;;;;;;3.55;2.00;;;;;;;;;;5013447;28;20099;-39
2023/03/22 14:44:00;;;;;;;2.25;1.88;;;;;;;;;;5012829;28;20026;-38
2023/03/22 14:46:37;;;;;;;6.10;2.33;;;;;;;;;;5011766;28;20045;-38
2023/03/22 14:49:04;;;;;;;2.40;1.52;;;;;;;;;;5011949;28;20919;-38
2023/03/22 14:51:35;;;;;;;3.03;1.38;;;;;;;;;;5029190;28;20044;-38
2023/03/22 14:54:06;;;;;;;4.82;1.50;;;;;;;;;;5031701;28;20045;-38
2023/03/22 14:56:38;;;;;;;1.70;1.60;;;;;;;;;;5032736;28;20037;-38